sensor_id;sensor_type;location;lat;lon;timestamp;temperature;humidity
21019;DHT22;10667;51.056;3.732;2023-12-22T00:01:06;9.60;99.90
21019;DHT22;10667;51.056;3.732;2023-12-22T00:03:32;9.50;99.90
21019;DHT22;10667;51.056;3.732;2023-12-22T00:05:58;9.40;99.90
21019;DHT22;10667;51.056;3.732;2023-12-22T00:08:23;9.30;99.90
21019;DHT22;10667;51.056;3.732;2023-12-22T00:10:49;9.30;99.90
21019;DHT22;10667;51.056;3.732;2023-12-22T00:13:15;9.30;99.90
21019;DHT22;10667;51.056;3.732;2023-12-22T00:15:41;9.30;99.90
21019;DHT22;10667;51.056;3.732;2023-12-22T00:18:10;9.30;99.90
21019;DHT22;10667;51.056;3.732;2023-12-22T00:20:35;9.40;99.90
21019;DHT22;10667;51.056;3.732;2023-12-22T00:23:01;9.40;99.90
21019;DHT22;10667;51.056;3.732;2023-12-22T00:25:27;9.40;99.90
21019;DHT22;10667;51.056;3.732;2023-12-22T00:27:52;9.40;99.90
21019;DHT22;10667;51.056;3.732;2023-12-22T00:30:18;9.40;99.90
21019;DHT22;10667;51.056;3.732;2023-12-22T00:32:44;9.50;99.90
21019;DHT22;10667;51.056;3.732;2023-12-22T00:35:09;9.60;99.90
21019;DHT22;10667;51.056;3.732;2023-12-22T00:37:35;9.70;99.90
21019;DHT22;10667;51.056;3.732;2023-12-22T00:40:01;9.70;99.90
21019;DHT22;10667;51.056;3.732;2023-12-22T00:42:29;9.80;99.90
21019;DHT22;10667;51.056;3.732;2023-12-22T00:44:55;9.80;99.90
21019;DHT22;10667;51.056;3.732;2023-12-22T00:47:20;9.90;99.90
21019;DHT22;10667;51.056;3.732;2023-12-22T00:49:46;10.00;99.90
21019;DHT22;10667;51.056;3.732;2023-12-22T00:52:12;9.90;99.90
21019;DHT22;10667;51.056;3.732;2023-12-22T00:54:37;10.00;99.90
21019;DHT22;10667;51.056;3.732;2023-12-22T00:57:03;10.00;99.90
21019;DHT22;10667;51.056;3.732;2023-12-22T00:59:29;10.20;99.90
21019;DHT22;10667;51.056;3.732;2023-12-22T01:01:55;10.20;99.90
21019;DHT22;10667;51.056;3.732;2023-12-22T01:04:21;10.20;99.90
21019;DHT22;10667;51.056;3.732;2023-12-22T01:06:46;10.20;99.90
21019;DHT22;10667;51.056;3.732;2023-12-22T01:09:12;10.20;99.90
21019;DHT22;10667;51.056;3.732;2023-12-22T01:11:37;10.30;99.90
21019;DHT22;10667;51.056;3.732;2023-12-22T01:14:03;10.30;99.90
21019;DHT22;10667;51.056;3.732;2023-12-22T01:16:29;10.30;99.90
21019;DHT22;10667;51.056;3.732;2023-12-22T01:18:54;10.30;99.90
21019;DHT22;10667;51.056;3.732;2023-12-22T01:21:20;10.30;99.90
21019;DHT22;10667;51.056;3.732;2023-12-22T01:23:46;10.40;99.90
21019;DHT22;10667;51.056;3.732;2023-12-22T01:26:11;10.40;99.90
21019;DHT22;10667;51.056;3.732;2023-12-22T01:28:37;10.50;99.90
21019;DHT22;10667;51.056;3.732;2023-12-22T01:31:03;10.50;99.90
21019;DHT22;10667;51.056;3.732;2023-12-22T01:33:29;10.50;99.90
21019;DHT22;10667;51.056;3.732;2023-12-22T01:35:55;10.50;99.90
21019;DHT22;10667;51.056;3.732;2023-12-22T01:38:20;10.50;99.90
21019;DHT22;10667;51.056;3.732;2023-12-22T01:40:46;10.50;99.90
21019;DHT22;10667;51.056;3.732;2023-12-22T01:43:12;10.40;99.90
21019;DHT22;10667;51.056;3.732;2023-12-22T01:45:39;10.50;99.90
21019;DHT22;10667;51.056;3.732;2023-12-22T01:48:04;10.60;99.90
21019;DHT22;10667;51.056;3.732;2023-12-22T01:50:30;10.50;99.90
21019;DHT22;10667;51.056;3.732;2023-12-22T01:52:56;10.50;99.90
21019;DHT22;10667;51.056;3.732;2023-12-22T01:55:22;10.50;99.90
21019;DHT22;10667;51.056;3.732;2023-12-22T01:57:49;10.50;99.90
21019;DHT22;10667;51.056;3.732;2023-12-22T02:00:15;10.40;99.90
21019;DHT22;10667;51.056;3.732;2023-12-22T02:02:42;10.40;99.90
21019;DHT22;10667;51.056;3.732;2023-12-22T02:05:08;10.30;99.90
21019;DHT22;10667;51.056;3.732;2023-12-22T02:07:40;10.20;99.90
21019;DHT22;10667;51.056;3.732;2023-12-22T02:10:10;10.20;99.90
21019;DHT22;10667;51.056;3.732;2023-12-22T02:12:38;10.20;99.90
21019;DHT22;10667;51.056;3.732;2023-12-22T02:15:04;10.20;99.90
21019;DHT22;10667;51.056;3.732;2023-12-22T02:20:07;10.20;99.90
21019;DHT22;10667;51.056;3.732;2023-12-22T02:22:33;10.20;99.90
21019;DHT22;10667;51.056;3.732;2023-12-22T02:24:59;10.20;99.90
21019;DHT22;10667;51.056;3.732;2023-12-22T02:30:17;10.20;99.90
21019;DHT22;10667;51.056;3.732;2023-12-22T02:32:48;10.20;99.90
21019;DHT22;10667;51.056;3.732;2023-12-22T02:35:20;10.20;99.90
21019;DHT22;10667;51.056;3.732;2023-12-22T02:37:47;10.20;99.90
21019;DHT22;10667;51.056;3.732;2023-12-22T02:40:14;10.10;99.90
21019;DHT22;10667;51.056;3.732;2023-12-22T02:42:40;10.00;99.90
21019;DHT22;10667;51.056;3.732;2023-12-22T02:45:06;9.90;99.90
21019;DHT22;10667;51.056;3.732;2023-12-22T02:47:38;10.00;99.90
21019;DHT22;10667;51.056;3.732;2023-12-22T02:50:04;10.00;99.90
21019;DHT22;10667;51.056;3.732;2023-12-22T02:52:29;10.00;99.90
21019;DHT22;10667;51.056;3.732;2023-12-22T02:54:57;9.90;99.90
21019;DHT22;10667;51.056;3.732;2023-12-22T02:57:22;9.90;99.90
21019;DHT22;10667;51.056;3.732;2023-12-22T02:59:48;9.80;99.90
21019;DHT22;10667;51.056;3.732;2023-12-22T03:02:14;9.70;99.90
21019;DHT22;10667;51.056;3.732;2023-12-22T03:04:39;9.70;99.90
21019;DHT22;10667;51.056;3.732;2023-12-22T03:07:05;9.60;99.90
21019;DHT22;10667;51.056;3.732;2023-12-22T03:09:31;9.50;99.90
21019;DHT22;10667;51.056;3.732;2023-12-22T03:11:58;9.40;99.90
21019;DHT22;10667;51.056;3.732;2023-12-22T03:14:31;9.30;99.90
21019;DHT22;10667;51.056;3.732;2023-12-22T03:16:59;9.20;99.90
21019;DHT22;10667;51.056;3.732;2023-12-22T03:19:24;9.10;99.90
21019;DHT22;10667;51.056;3.732;2023-12-22T03:21:50;9.00;99.90
21019;DHT22;10667;51.056;3.732;2023-12-22T03:24:16;9.00;99.90
21019;DHT22;10667;51.056;3.732;2023-12-22T03:26:44;9.00;99.90
21019;DHT22;10667;51.056;3.732;2023-12-22T03:29:09;9.00;99.90
21019;DHT22;10667;51.056;3.732;2023-12-22T03:31:35;9.10;99.90
21019;DHT22;10667;51.056;3.732;2023-12-22T03:34:01;9.00;99.90
21019;DHT22;10667;51.056;3.732;2023-12-22T03:36:26;9.10;99.90
21019;DHT22;10667;51.056;3.732;2023-12-22T03:38:52;9.00;99.90
21019;DHT22;10667;51.056;3.732;2023-12-22T03:41:17;9.00;99.90
21019;DHT22;10667;51.056;3.732;2023-12-22T03:43:43;9.10;99.90
21019;DHT22;10667;51.056;3.732;2023-12-22T03:46:09;9.10;99.90
21019;DHT22;10667;51.056;3.732;2023-12-22T03:48:34;9.10;99.90
21019;DHT22;10667;51.056;3.732;2023-12-22T03:51:00;9.10;99.90
21019;DHT22;10667;51.056;3.732;2023-12-22T03:53:25;9.10;99.90
21019;DHT22;10667;51.056;3.732;2023-12-22T03:55:51;9.20;99.90
21019;DHT22;10667;51.056;3.732;2023-12-22T03:58:17;9.20;99.90
21019;DHT22;10667;51.056;3.732;2023-12-22T04:00:42;9.20;99.90
21019;DHT22;10667;51.056;3.732;2023-12-22T04:03:08;9.30;99.90
21019;DHT22;10667;51.056;3.732;2023-12-22T04:05:33;9.30;99.90
21019;DHT22;10667;51.056;3.732;2023-12-22T04:07:59;9.30;99.90
21019;DHT22;10667;51.056;3.732;2023-12-22T04:10:25;9.30;99.90
21019;DHT22;10667;51.056;3.732;2023-12-22T04:12:50;9.40;99.90
21019;DHT22;10667;51.056;3.732;2023-12-22T04:15:16;9.50;99.90
21019;DHT22;10667;51.056;3.732;2023-12-22T04:17:41;9.50;99.90
21019;DHT22;10667;51.056;3.732;2023-12-22T04:20:07;9.60;99.90
21019;DHT22;10667;51.056;3.732;2023-12-22T04:22:33;9.60;99.90
21019;DHT22;10667;51.056;3.732;2023-12-22T04:25:00;9.60;99.90
21019;DHT22;10667;51.056;3.732;2023-12-22T04:27:25;9.60;99.90
21019;DHT22;10667;51.056;3.732;2023-12-22T04:29:51;9.70;99.90
21019;DHT22;10667;51.056;3.732;2023-12-22T04:32:17;9.80;99.90
21019;DHT22;10667;51.056;3.732;2023-12-22T04:34:42;9.80;99.90
21019;DHT22;10667;51.056;3.732;2023-12-22T04:37:08;9.80;99.90
21019;DHT22;10667;51.056;3.732;2023-12-22T04:39:34;9.90;99.90
21019;DHT22;10667;51.056;3.732;2023-12-22T04:42:00;9.80;99.90
21019;DHT22;10667;51.056;3.732;2023-12-22T04:44:25;9.90;99.90
21019;DHT22;10667;51.056;3.732;2023-12-22T04:46:51;9.90;99.90
21019;DHT22;10667;51.056;3.732;2023-12-22T04:49:16;10.00;99.90
21019;DHT22;10667;51.056;3.732;2023-12-22T04:51:42;10.00;99.90
21019;DHT22;10667;51.056;3.732;2023-12-22T04:54:08;10.00;99.90
21019;DHT22;10667;51.056;3.732;2023-12-22T04:56:33;9.90;99.90
21019;DHT22;10667;51.056;3.732;2023-12-22T04:58:59;10.00;99.90
21019;DHT22;10667;51.056;3.732;2023-12-22T05:01:25;10.10;99.90
21019;DHT22;10667;51.056;3.732;2023-12-22T05:03:50;10.10;99.90
21019;DHT22;10667;51.056;3.732;2023-12-22T05:06:16;10.20;99.90
21019;DHT22;10667;51.056;3.732;2023-12-22T05:08:42;10.30;99.90
21019;DHT22;10667;51.056;3.732;2023-12-22T05:11:08;10.30;99.90
21019;DHT22;10667;51.056;3.732;2023-12-22T05:13:34;10.30;99.90
21019;DHT22;10667;51.056;3.732;2023-12-22T05:15:59;10.30;99.90
21019;DHT22;10667;51.056;3.732;2023-12-22T05:18:26;10.40;99.90
21019;DHT22;10667;51.056;3.732;2023-12-22T05:20:52;10.50;99.90
21019;DHT22;10667;51.056;3.732;2023-12-22T05:23:19;10.50;99.90
21019;DHT22;10667;51.056;3.732;2023-12-22T05:25:44;10.50;99.90
21019;DHT22;10667;51.056;3.732;2023-12-22T05:28:10;10.50;99.90
21019;DHT22;10667;51.056;3.732;2023-12-22T05:30:36;10.50;99.90
21019;DHT22;10667;51.056;3.732;2023-12-22T05:33:01;10.60;99.90
21019;DHT22;10667;51.056;3.732;2023-12-22T05:35:27;10.60;99.90
21019;DHT22;10667;51.056;3.732;2023-12-22T05:37:52;10.60;99.90
21019;DHT22;10667;51.056;3.732;2023-12-22T05:40:18;10.50;99.90
21019;DHT22;10667;51.056;3.732;2023-12-22T05:42:44;10.40;99.90
21019;DHT22;10667;51.056;3.732;2023-12-22T05:45:09;10.40;99.90
21019;DHT22;10667;51.056;3.732;2023-12-22T05:47:36;10.40;99.90
21019;DHT22;10667;51.056;3.732;2023-12-22T05:50:03;10.50;99.90
21019;DHT22;10667;51.056;3.732;2023-12-22T05:52:29;10.40;99.90
21019;DHT22;10667;51.056;3.732;2023-12-22T05:54:55;10.30;99.90
21019;DHT22;10667;51.056;3.732;2023-12-22T05:57:20;10.30;99.90
21019;DHT22;10667;51.056;3.732;2023-12-22T05:59:46;10.30;99.90
21019;DHT22;10667;51.056;3.732;2023-12-22T06:02:11;10.20;99.90
21019;DHT22;10667;51.056;3.732;2023-12-22T06:04:38;10.10;99.90
21019;DHT22;10667;51.056;3.732;2023-12-22T06:07:04;10.20;99.90
21019;DHT22;10667;51.056;3.732;2023-12-22T06:09:30;10.20;99.90
21019;DHT22;10667;51.056;3.732;2023-12-22T06:11:55;10.20;99.90
21019;DHT22;10667;51.056;3.732;2023-12-22T06:14:21;10.10;99.90
21019;DHT22;10667;51.056;3.732;2023-12-22T06:16:47;10.10;99.90
21019;DHT22;10667;51.056;3.732;2023-12-22T06:19:12;10.00;99.90
21019;DHT22;10667;51.056;3.732;2023-12-22T06:21:39;9.80;99.90
21019;DHT22;10667;51.056;3.732;2023-12-22T06:24:05;9.80;99.90
21019;DHT22;10667;51.056;3.732;2023-12-22T06:26:31;9.80;99.90
21019;DHT22;10667;51.056;3.732;2023-12-22T06:28:56;9.80;99.90
21019;DHT22;10667;51.056;3.732;2023-12-22T06:31:23;9.80;99.90
21019;DHT22;10667;51.056;3.732;2023-12-22T06:33:49;9.80;99.90
21019;DHT22;10667;51.056;3.732;2023-12-22T06:36:22;9.70;99.90
21019;DHT22;10667;51.056;3.732;2023-12-22T06:38:49;9.70;99.90
21019;DHT22;10667;51.056;3.732;2023-12-22T06:41:25;9.80;99.90
21019;DHT22;10667;51.056;3.732;2023-12-22T06:43:51;9.90;99.90
21019;DHT22;10667;51.056;3.732;2023-12-22T06:46:22;10.00;99.90
21019;DHT22;10667;51.056;3.732;2023-12-22T06:48:48;10.00;99.90
21019;DHT22;10667;51.056;3.732;2023-12-22T06:51:21;10.00;99.90
21019;DHT22;10667;51.056;3.732;2023-12-22T06:53:50;10.00;99.90
21019;DHT22;10667;51.056;3.732;2023-12-22T06:56:24;10.00;99.90
21019;DHT22;10667;51.056;3.732;2023-12-22T06:58:51;10.10;99.90
21019;DHT22;10667;51.056;3.732;2023-12-22T07:01:23;10.10;99.90
21019;DHT22;10667;51.056;3.732;2023-12-22T07:03:49;10.20;99.90
21019;DHT22;10667;51.056;3.732;2023-12-22T07:06:20;10.20;99.90
21019;DHT22;10667;51.056;3.732;2023-12-22T07:11:23;10.30;99.90
21019;DHT22;10667;51.056;3.732;2023-12-22T07:13:48;10.30;99.90
21019;DHT22;10667;51.056;3.732;2023-12-22T07:16:15;10.30;99.90
21019;DHT22;10667;51.056;3.732;2023-12-22T07:18:41;10.20;99.90
21019;DHT22;10667;51.056;3.732;2023-12-22T07:21:07;10.30;99.90
21019;DHT22;10667;51.056;3.732;2023-12-22T07:23:32;10.30;99.90
21019;DHT22;10667;51.056;3.732;2023-12-22T07:25:58;10.30;99.90
21019;DHT22;10667;51.056;3.732;2023-12-22T07:28:24;10.20;99.90
21019;DHT22;10667;51.056;3.732;2023-12-22T07:30:49;10.20;99.90
21019;DHT22;10667;51.056;3.732;2023-12-22T07:33:15;10.10;99.90
21019;DHT22;10667;51.056;3.732;2023-12-22T07:35:41;10.10;99.90
21019;DHT22;10667;51.056;3.732;2023-12-22T07:38:06;10.10;99.90
21019;DHT22;10667;51.056;3.732;2023-12-22T07:40:32;10.10;99.90
21019;DHT22;10667;51.056;3.732;2023-12-22T07:42:58;10.10;99.90
21019;DHT22;10667;51.056;3.732;2023-12-22T07:45:23;10.10;99.90
21019;DHT22;10667;51.056;3.732;2023-12-22T07:47:49;10.10;99.90
21019;DHT22;10667;51.056;3.732;2023-12-22T07:50:15;10.10;99.90
21019;DHT22;10667;51.056;3.732;2023-12-22T07:52:40;10.10;99.90
21019;DHT22;10667;51.056;3.732;2023-12-22T07:55:07;10.10;99.90
21019;DHT22;10667;51.056;3.732;2023-12-22T07:57:35;10.10;99.90
21019;DHT22;10667;51.056;3.732;2023-12-22T08:00:01;10.10;99.90
21019;DHT22;10667;51.056;3.732;2023-12-22T08:02:26;10.00;99.90
21019;DHT22;10667;51.056;3.732;2023-12-22T08:04:52;10.10;99.90
21019;DHT22;10667;51.056;3.732;2023-12-22T08:07:17;10.00;99.90
21019;DHT22;10667;51.056;3.732;2023-12-22T08:09:43;10.10;99.90
21019;DHT22;10667;51.056;3.732;2023-12-22T08:12:09;10.10;99.90
21019;DHT22;10667;51.056;3.732;2023-12-22T08:14:34;10.20;99.90
21019;DHT22;10667;51.056;3.732;2023-12-22T08:17:00;10.20;99.90
21019;DHT22;10667;51.056;3.732;2023-12-22T08:19:25;10.20;99.90
21019;DHT22;10667;51.056;3.732;2023-12-22T08:21:54;10.30;99.90
21019;DHT22;10667;51.056;3.732;2023-12-22T08:24:20;10.30;99.90
21019;DHT22;10667;51.056;3.732;2023-12-22T08:26:46;10.30;99.90
21019;DHT22;10667;51.056;3.732;2023-12-22T08:29:12;10.40;99.90
21019;DHT22;10667;51.056;3.732;2023-12-22T08:31:37;10.40;99.90
21019;DHT22;10667;51.056;3.732;2023-12-22T08:34:03;10.50;99.90
21019;DHT22;10667;51.056;3.732;2023-12-22T08:36:29;10.50;99.90
21019;DHT22;10667;51.056;3.732;2023-12-22T08:38:54;10.50;99.90
21019;DHT22;10667;51.056;3.732;2023-12-22T08:41:20;10.60;99.90
21019;DHT22;10667;51.056;3.732;2023-12-22T08:43:46;10.60;99.90
21019;DHT22;10667;51.056;3.732;2023-12-22T08:46:11;10.60;99.90
21019;DHT22;10667;51.056;3.732;2023-12-22T08:48:38;10.70;99.90
21019;DHT22;10667;51.056;3.732;2023-12-22T08:51:04;10.70;99.90
21019;DHT22;10667;51.056;3.732;2023-12-22T08:53:30;10.70;99.90
21019;DHT22;10667;51.056;3.732;2023-12-22T08:55:59;10.70;99.90
21019;DHT22;10667;51.056;3.732;2023-12-22T08:58:26;10.80;99.90
21019;DHT22;10667;51.056;3.732;2023-12-22T09:00:51;10.80;99.90
21019;DHT22;10667;51.056;3.732;2023-12-22T09:03:17;10.80;99.90
21019;DHT22;10667;51.056;3.732;2023-12-22T09:05:42;10.80;99.90
21019;DHT22;10667;51.056;3.732;2023-12-22T09:08:08;10.90;99.90
21019;DHT22;10667;51.056;3.732;2023-12-22T09:10:34;10.90;99.90
21019;DHT22;10667;51.056;3.732;2023-12-22T09:13:00;11.00;99.90
21019;DHT22;10667;51.056;3.732;2023-12-22T09:15:26;11.00;99.90
21019;DHT22;10667;51.056;3.732;2023-12-22T09:17:52;11.10;99.90
21019;DHT22;10667;51.056;3.732;2023-12-22T09:20:19;11.20;99.90
21019;DHT22;10667;51.056;3.732;2023-12-22T09:22:45;11.20;99.90
21019;DHT22;10667;51.056;3.732;2023-12-22T09:25:11;11.20;99.90
21019;DHT22;10667;51.056;3.732;2023-12-22T09:27:36;11.20;99.90
21019;DHT22;10667;51.056;3.732;2023-12-22T09:30:02;11.40;99.90
21019;DHT22;10667;51.056;3.732;2023-12-22T09:32:30;11.50;99.90
21019;DHT22;10667;51.056;3.732;2023-12-22T09:34:55;11.50;99.90
21019;DHT22;10667;51.056;3.732;2023-12-22T09:37:24;11.50;99.90
21019;DHT22;10667;51.056;3.732;2023-12-22T09:39:50;11.50;99.90
21019;DHT22;10667;51.056;3.732;2023-12-22T09:42:15;11.50;99.90
21019;DHT22;10667;51.056;3.732;2023-12-22T09:44:42;11.50;99.90
21019;DHT22;10667;51.056;3.732;2023-12-22T09:47:09;11.50;99.90
21019;DHT22;10667;51.056;3.732;2023-12-22T09:49:37;11.50;99.90
21019;DHT22;10667;51.056;3.732;2023-12-22T09:52:04;11.60;99.90
21019;DHT22;10667;51.056;3.732;2023-12-22T09:54:32;11.60;99.90
21019;DHT22;10667;51.056;3.732;2023-12-22T09:56:59;11.60;99.90
21019;DHT22;10667;51.056;3.732;2023-12-22T09:59:25;11.70;99.90
21019;DHT22;10667;51.056;3.732;2023-12-22T10:01:52;11.60;99.90
21019;DHT22;10667;51.056;3.732;2023-12-22T10:04:20;11.70;99.90
21019;DHT22;10667;51.056;3.732;2023-12-22T10:06:47;11.70;99.90
21019;DHT22;10667;51.056;3.732;2023-12-22T10:09:14;11.70;99.90
21019;DHT22;10667;51.056;3.732;2023-12-22T10:11:43;11.80;99.90
21019;DHT22;10667;51.056;3.732;2023-12-22T10:14:10;11.80;99.90
21019;DHT22;10667;51.056;3.732;2023-12-22T10:16:36;11.70;99.90
21019;DHT22;10667;51.056;3.732;2023-12-22T10:19:03;11.70;99.90
21019;DHT22;10667;51.056;3.732;2023-12-22T10:21:29;11.70;99.90
21019;DHT22;10667;51.056;3.732;2023-12-22T10:23:57;11.80;99.90
21019;DHT22;10667;51.056;3.732;2023-12-22T10:26:22;11.80;99.90
21019;DHT22;10667;51.056;3.732;2023-12-22T10:28:48;11.80;99.90
21019;DHT22;10667;51.056;3.732;2023-12-22T10:31:17;11.70;99.90
21019;DHT22;10667;51.056;3.732;2023-12-22T10:33:44;11.70;99.90
21019;DHT22;10667;51.056;3.732;2023-12-22T10:36:10;11.60;99.90
21019;DHT22;10667;51.056;3.732;2023-12-22T10:38:36;11.50;99.90
21019;DHT22;10667;51.056;3.732;2023-12-22T10:41:03;11.40;99.90
21019;DHT22;10667;51.056;3.732;2023-12-22T10:43:29;11.30;99.90
21019;DHT22;10667;51.056;3.732;2023-12-22T10:45:55;11.30;99.90
21019;DHT22;10667;51.056;3.732;2023-12-22T10:48:24;11.40;99.90
21019;DHT22;10667;51.056;3.732;2023-12-22T10:50:50;11.40;99.90
21019;DHT22;10667;51.056;3.732;2023-12-22T10:53:15;11.50;99.90
21019;DHT22;10667;51.056;3.732;2023-12-22T10:55:41;11.50;99.90
21019;DHT22;10667;51.056;3.732;2023-12-22T10:58:07;11.60;99.90
21019;DHT22;10667;51.056;3.732;2023-12-22T11:00:37;11.70;99.90
21019;DHT22;10667;51.056;3.732;2023-12-22T11:03:06;11.70;99.90
21019;DHT22;10667;51.056;3.732;2023-12-22T11:05:36;11.80;99.90
21019;DHT22;10667;51.056;3.732;2023-12-22T11:08:03;11.90;99.90
21019;DHT22;10667;51.056;3.732;2023-12-22T11:10:31;11.80;99.90
21019;DHT22;10667;51.056;3.732;2023-12-22T11:12:57;11.90;99.90
21019;DHT22;10667;51.056;3.732;2023-12-22T11:15:24;11.80;99.90
21019;DHT22;10667;51.056;3.732;2023-12-22T11:17:51;11.80;99.90
21019;DHT22;10667;51.056;3.732;2023-12-22T11:20:18;11.90;99.90
21019;DHT22;10667;51.056;3.732;2023-12-22T11:22:44;11.90;99.90
21019;DHT22;10667;51.056;3.732;2023-12-22T11:25:10;11.90;99.90
21019;DHT22;10667;51.056;3.732;2023-12-22T11:27:37;11.90;99.90
21019;DHT22;10667;51.056;3.732;2023-12-22T11:30:05;11.90;99.90
21019;DHT22;10667;51.056;3.732;2023-12-22T11:32:34;11.90;99.90
21019;DHT22;10667;51.056;3.732;2023-12-22T11:35:00;11.90;99.90
21019;DHT22;10667;51.056;3.732;2023-12-22T11:37:26;12.00;99.90
21019;DHT22;10667;51.056;3.732;2023-12-22T11:39:51;12.00;99.90
21019;DHT22;10667;51.056;3.732;2023-12-22T11:42:28;12.10;99.90
21019;DHT22;10667;51.056;3.732;2023-12-22T11:44:54;12.10;99.90
21019;DHT22;10667;51.056;3.732;2023-12-22T11:47:23;12.00;99.90
21019;DHT22;10667;51.056;3.732;2023-12-22T11:49:48;12.00;99.90
21019;DHT22;10667;51.056;3.732;2023-12-22T11:52:25;12.10;99.90
21019;DHT22;10667;51.056;3.732;2023-12-22T11:54:52;12.10;99.90
21019;DHT22;10667;51.056;3.732;2023-12-22T11:59:55;12.10;99.90
21019;DHT22;10667;51.056;3.732;2023-12-22T12:02:21;12.10;99.90
21019;DHT22;10667;51.056;3.732;2023-12-22T12:04:50;12.10;99.90
21019;DHT22;10667;51.056;3.732;2023-12-22T12:10:13;12.00;99.90
21019;DHT22;10667;51.056;3.732;2023-12-22T12:12:39;11.90;99.90
21019;DHT22;10667;51.056;3.732;2023-12-22T12:15:10;11.90;99.90
21019;DHT22;10667;51.056;3.732;2023-12-22T12:17:41;11.90;99.90
21019;DHT22;10667;51.056;3.732;2023-12-22T12:20:09;11.90;99.90
21019;DHT22;10667;51.056;3.732;2023-12-22T12:22:35;11.90;99.90
21019;DHT22;10667;51.056;3.732;2023-12-22T12:25:07;12.00;99.90
21019;DHT22;10667;51.056;3.732;2023-12-22T12:27:35;11.90;99.90
21019;DHT22;10667;51.056;3.732;2023-12-22T12:30:07;11.80;99.90
21019;DHT22;10667;51.056;3.732;2023-12-22T12:32:35;11.70;99.90
21019;DHT22;10667;51.056;3.732;2023-12-22T12:35:01;11.60;99.90
21019;DHT22;10667;51.056;3.732;2023-12-22T12:37:27;11.70;99.90
21019;DHT22;10667;51.056;3.732;2023-12-22T12:39:57;11.80;99.90
21019;DHT22;10667;51.056;3.732;2023-12-22T12:42:28;11.80;99.90
21019;DHT22;10667;51.056;3.732;2023-12-22T12:44:54;11.90;99.90
21019;DHT22;10667;51.056;3.732;2023-12-22T12:47:20;11.90;99.90
21019;DHT22;10667;51.056;3.732;2023-12-22T12:49:45;12.00;99.90
21019;DHT22;10667;51.056;3.732;2023-12-22T12:52:14;12.00;99.90
21019;DHT22;10667;51.056;3.732;2023-12-22T12:54:41;12.00;99.90
21019;DHT22;10667;51.056;3.732;2023-12-22T12:57:06;12.10;99.90
21019;DHT22;10667;51.056;3.732;2023-12-22T12:59:32;12.20;99.90
21019;DHT22;10667;51.056;3.732;2023-12-22T13:01:58;12.10;99.90
21019;DHT22;10667;51.056;3.732;2023-12-22T13:04:37;12.10;99.90
21019;DHT22;10667;51.056;3.732;2023-12-22T13:07:03;12.20;99.90
21019;DHT22;10667;51.056;3.732;2023-12-22T13:09:32;12.10;99.90
21019;DHT22;10667;51.056;3.732;2023-12-22T13:11:59;12.10;99.90
21019;DHT22;10667;51.056;3.732;2023-12-22T13:14:25;12.10;99.90
21019;DHT22;10667;51.056;3.732;2023-12-22T13:16:53;12.10;99.90
21019;DHT22;10667;51.056;3.732;2023-12-22T13:19:21;12.10;99.90
21019;DHT22;10667;51.056;3.732;2023-12-22T13:21:46;12.00;99.90
21019;DHT22;10667;51.056;3.732;2023-12-22T13:24:16;12.10;99.90
21019;DHT22;10667;51.056;3.732;2023-12-22T13:26:43;12.20;99.90
21019;DHT22;10667;51.056;3.732;2023-12-22T13:29:10;12.10;99.90
21019;DHT22;10667;51.056;3.732;2023-12-22T13:31:40;12.10;99.90
21019;DHT22;10667;51.056;3.732;2023-12-22T13:34:10;12.00;99.90
21019;DHT22;10667;51.056;3.732;2023-12-22T13:36:36;11.90;99.90
21019;DHT22;10667;51.056;3.732;2023-12-22T13:39:05;11.80;99.90
21019;DHT22;10667;51.056;3.732;2023-12-22T13:41:38;11.70;99.90
21019;DHT22;10667;51.056;3.732;2023-12-22T13:44:06;11.70;99.90
21019;DHT22;10667;51.056;3.732;2023-12-22T13:46:32;11.70;99.90
21019;DHT22;10667;51.056;3.732;2023-12-22T13:49:03;11.70;99.90
21019;DHT22;10667;51.056;3.732;2023-12-22T13:51:42;11.70;99.90
21019;DHT22;10667;51.056;3.732;2023-12-22T13:54:08;11.80;99.90
21019;DHT22;10667;51.056;3.732;2023-12-22T13:56:38;11.90;99.90
21019;DHT22;10667;51.056;3.732;2023-12-22T13:59:08;11.90;99.90
21019;DHT22;10667;51.056;3.732;2023-12-22T14:01:34;12.00;99.90
21019;DHT22;10667;51.056;3.732;2023-12-22T14:04:00;12.00;99.90
21019;DHT22;10667;51.056;3.732;2023-12-22T14:06:27;12.10;99.90
21019;DHT22;10667;51.056;3.732;2023-12-22T14:08:53;12.10;99.90
21019;DHT22;10667;51.056;3.732;2023-12-22T14:11:19;12.10;99.90
21019;DHT22;10667;51.056;3.732;2023-12-22T14:13:45;12.20;99.90
21019;DHT22;10667;51.056;3.732;2023-12-22T14:16:10;12.10;99.90
21019;DHT22;10667;51.056;3.732;2023-12-22T14:18:36;12.10;99.90
21019;DHT22;10667;51.056;3.732;2023-12-22T14:21:02;12.20;99.90
21019;DHT22;10667;51.056;3.732;2023-12-22T14:23:29;12.20;99.90
21019;DHT22;10667;51.056;3.732;2023-12-22T14:25:55;12.20;99.90
21019;DHT22;10667;51.056;3.732;2023-12-22T14:28:20;12.10;99.90
21019;DHT22;10667;51.056;3.732;2023-12-22T14:30:46;12.20;99.90
21019;DHT22;10667;51.056;3.732;2023-12-22T14:33:11;12.10;99.90
21019;DHT22;10667;51.056;3.732;2023-12-22T14:35:37;12.10;99.90
21019;DHT22;10667;51.056;3.732;2023-12-22T14:38:03;12.10;99.90
21019;DHT22;10667;51.056;3.732;2023-12-22T14:40:29;12.10;99.90
21019;DHT22;10667;51.056;3.732;2023-12-22T14:42:54;12.10;99.90
21019;DHT22;10667;51.056;3.732;2023-12-22T14:45:20;12.20;99.90
21019;DHT22;10667;51.056;3.732;2023-12-22T14:47:46;12.20;99.90
21019;DHT22;10667;51.056;3.732;2023-12-22T14:50:13;12.20;99.90
21019;DHT22;10667;51.056;3.732;2023-12-22T14:52:38;12.20;99.90
21019;DHT22;10667;51.056;3.732;2023-12-22T14:55:05;12.30;99.90
21019;DHT22;10667;51.056;3.732;2023-12-22T14:57:31;12.20;99.90
21019;DHT22;10667;51.056;3.732;2023-12-22T14:59:59;12.20;99.90
21019;DHT22;10667;51.056;3.732;2023-12-22T15:02:24;12.20;99.90
21019;DHT22;10667;51.056;3.732;2023-12-22T15:04:50;12.20;99.90
21019;DHT22;10667;51.056;3.732;2023-12-22T15:07:16;12.20;99.90
21019;DHT22;10667;51.056;3.732;2023-12-22T15:09:42;12.20;99.90
21019;DHT22;10667;51.056;3.732;2023-12-22T15:12:08;12.20;99.90
21019;DHT22;10667;51.056;3.732;2023-12-22T15:14:34;12.30;99.90
21019;DHT22;10667;51.056;3.732;2023-12-22T15:17:00;12.30;99.90
21019;DHT22;10667;51.056;3.732;2023-12-22T15:19:25;12.30;99.90
21019;DHT22;10667;51.056;3.732;2023-12-22T15:21:51;12.30;99.90
21019;DHT22;10667;51.056;3.732;2023-12-22T15:24:17;12.50;99.90
21019;DHT22;10667;51.056;3.732;2023-12-22T15:26:43;12.30;99.90
21019;DHT22;10667;51.056;3.732;2023-12-22T15:29:08;12.20;99.90
21019;DHT22;10667;51.056;3.732;2023-12-22T15:31:34;12.30;99.90
21019;DHT22;10667;51.056;3.732;2023-12-22T15:34:00;12.20;99.90
21019;DHT22;10667;51.056;3.732;2023-12-22T15:36:26;12.30;99.90
21019;DHT22;10667;51.056;3.732;2023-12-22T15:38:53;12.30;99.90
21019;DHT22;10667;51.056;3.732;2023-12-22T15:41:19;12.20;99.90
21019;DHT22;10667;51.056;3.732;2023-12-22T15:43:45;12.30;99.90